EGPI/ILY METAR and TAF weather

Enter ICAO airport designator
Station Type Date Time Source
EGPI METAR 2020/04/05 13:20 UTC NOAA

EGPI 051320Z AUTO 13027G37KT 100V170 9999 NCD 11/05 Q1000


Station Type Date Time Source
EGPI Decoded METAR 2020/04/05 13:20 UTC NOAA

Islay, United Kingdom (EGPI) 55-40-55N 006-15-24W
Apr 05, 2020 - 09:20 AM EDT / 2020.04.05 1320 UTC
Wind: from the SE (130 degrees) at 31 MPH (27 KT) gusting to 43 MPH (37 KT) (direction variable):0
Visibility: greater than 7 mile(s):0
Temperature: 51 F (11 C)
Dew Point: 41 F (5 C)
Relative Humidity: 66%
Pressure (altimeter): 29.53 in. Hg (1000 hPa)
ob: EGPI 051320Z AUTO 13027G37KT 100V170 9999 NCD 11/05 Q1000
cycle: 13

Station Type Date Time Source
EGPI TAF UTC NOAA

Error!

Example: see airport list